createdAt,value
2019-02-21T00:00:35.320Z,3.00
2019-02-21T00:03:04.176Z,3.00
2019-02-21T00:05:33.252Z,3.00
2019-02-21T00:08:02.112Z,3.00
2019-02-21T00:10:30.955Z,2.80
2019-02-21T00:12:59.855Z,2.70
2019-02-21T00:15:28.704Z,2.70
2019-02-21T00:17:57.572Z,2.60
2019-02-21T00:20:26.453Z,2.50
2019-02-21T00:22:55.317Z,2.50
2019-02-21T00:25:24.164Z,2.40
2019-02-21T00:27:53.067Z,2.40
2019-02-21T00:30:21.935Z,2.40
2019-02-21T00:32:50.780Z,2.40
2019-02-21T00:35:19.968Z,2.40
2019-02-21T00:37:48.789Z,2.40
2019-02-21T00:40:17.690Z,2.40
2019-02-21T00:42:46.564Z,2.30
2019-02-21T00:45:15.433Z,2.40
2019-02-21T00:47:44.295Z,2.40
2019-02-21T00:50:13.176Z,2.30
2019-02-21T00:52:42.023Z,2.30
2019-02-21T00:55:10.856Z,2.20
2019-02-21T00:57:39.776Z,2.20
2019-02-21T01:00:12.008Z,2.20
2019-02-21T01:02:40.869Z,2.20
2019-02-21T01:05:09.760Z,2.20
2019-02-21T01:07:38.606Z,2.10
2019-02-21T01:10:08.253Z,2.10
2019-02-21T01:12:37.134Z,2.20
2019-02-21T01:15:08.605Z,2.10
2019-02-21T01:17:37.473Z,2.00
2019-02-21T01:20:07.095Z,2.00
2019-02-21T01:22:35.955Z,2.00
2019-02-21T01:25:06.495Z,1.90
2019-02-21T01:27:35.384Z,1.90
2019-02-21T01:30:04.934Z,1.90
2019-02-21T01:32:33.801Z,1.90
2019-02-21T01:35:03.031Z,2.00
2019-02-21T01:37:31.917Z,2.10
2019-02-21T01:40:00.771Z,2.10
2019-02-21T01:42:29.721Z,2.00
2019-02-21T01:44:58.567Z,1.90
2019-02-21T01:47:27.599Z,1.80
2019-02-21T01:49:56.557Z,1.80
2019-02-21T01:52:25.434Z,1.70
2019-02-21T01:54:54.267Z,1.70
2019-02-21T01:57:23.167Z,1.70
2019-02-21T01:59:52.004Z,1.80
2019-02-21T02:02:20.903Z,1.90
2019-02-21T02:04:49.759Z,1.90
2019-02-21T02:07:18.611Z,1.90
2019-02-21T02:09:47.498Z,2.00
2019-02-21T02:12:16.347Z,1.90
2019-02-21T02:14:45.187Z,1.80
2019-02-21T02:17:14.090Z,1.80
2019-02-21T02:19:42.950Z,1.80
2019-02-21T02:22:11.773Z,1.80
2019-02-21T02:24:40.700Z,1.80
2019-02-21T02:27:09.560Z,1.60
2019-02-21T02:29:38.390Z,1.50
2019-02-21T02:32:09.532Z,1.40
2019-02-21T02:34:37.782Z,1.50
2019-02-21T02:37:06.623Z,1.40
2019-02-21T02:39:35.511Z,1.40
2019-02-21T02:42:04.363Z,1.40
2019-02-21T02:44:33.221Z,1.30
2019-02-21T02:47:02.100Z,1.30
2019-02-21T02:49:30.950Z,1.30
2019-02-21T02:51:59.776Z,1.30
2019-02-21T02:54:28.733Z,1.30
2019-02-21T02:56:57.640Z,1.40
2019-02-21T02:59:26.470Z,1.40
2019-02-21T03:01:55.374Z,1.30
2019-02-21T03:04:24.282Z,1.20
2019-02-21T03:06:53.185Z,1.20
2019-02-21T03:09:22.111Z,1.30
2019-02-21T03:11:51.919Z,1.30
2019-02-21T03:14:21.115Z,1.30
2019-02-21T03:16:49.985Z,1.30
2019-02-21T03:19:18.836Z,1.30
2019-02-21T03:21:47.691Z,1.20
2019-02-21T03:24:16.566Z,1.20
2019-02-21T03:26:45.422Z,1.10
2019-02-21T03:29:14.260Z,1.20
2019-02-21T03:31:54.320Z,1.30
2019-02-21T03:34:13.690Z,1.30
2019-02-21T03:36:42.534Z,1.40
2019-02-21T03:39:11.445Z,1.50
2019-02-21T03:41:40.602Z,1.60
2019-02-21T03:44:09.461Z,1.50
2019-02-21T03:46:38.352Z,1.60
2019-02-21T03:49:07.195Z,1.40
2019-02-21T03:51:36.033Z,1.20
2019-02-21T03:54:04.948Z,1.10
2019-02-21T03:56:33.808Z,1.00
2019-02-21T03:59:02.664Z,1.00
2019-02-21T04:01:31.584Z,0.90
2019-02-21T04:04:00.421Z,0.90
2019-02-21T04:06:29.262Z,0.90
2019-02-21T04:08:58.145Z,0.80
2019-02-21T04:11:27.004Z,0.70
2019-02-21T04:13:55.854Z,0.70
2019-02-21T04:16:24.749Z,0.60
2019-02-21T04:18:53.602Z,0.60
2019-02-21T04:21:22.442Z,0.60
2019-02-21T04:23:51.352Z,0.70
2019-02-21T04:26:20.181Z,0.70
2019-02-21T04:28:49.030Z,0.70
2019-02-21T04:31:17.929Z,0.70
2019-02-21T04:33:46.775Z,0.60
2019-02-21T04:36:15.619Z,0.60
2019-02-21T04:38:44.528Z,0.60
2019-02-21T04:41:13.375Z,0.60
2019-02-21T04:43:43.120Z,0.50
2019-02-21T04:46:12.002Z,0.50
2019-02-21T04:48:40.858Z,0.60
2019-02-21T04:51:09.711Z,0.60
2019-02-21T04:53:38.581Z,0.60
2019-02-21T04:56:07.418Z,0.60
2019-02-21T04:58:36.250Z,0.50
2019-02-21T05:01:05.158Z,0.50
2019-02-21T05:03:34.018Z,0.50
2019-02-21T05:06:02.865Z,0.40
2019-02-21T05:08:31.771Z,0.40
2019-02-21T05:11:00.619Z,0.40
2019-02-21T05:13:29.483Z,0.40
2019-02-21T05:15:58.381Z,0.40
2019-02-21T05:18:27.239Z,0.30
2019-02-21T05:20:56.088Z,0.30
2019-02-21T05:23:24.972Z,0.30
2019-02-21T05:25:53.819Z,0.40
2019-02-21T05:28:32.408Z,0.50
2019-02-21T05:31:02.828Z,0.60
2019-02-21T05:33:42.511Z,0.60
2019-02-21T05:36:21.958Z,0.50
2019-02-21T05:38:52.467Z,0.40
2019-02-21T05:41:28.854Z,0.30
2019-02-21T05:44:05.221Z,0.40
2019-02-21T05:46:44.644Z,0.40
2019-02-21T05:49:15.103Z,0.40
2019-02-21T05:51:48.597Z,0.40
2019-02-21T05:54:19.126Z,0.40
2019-02-21T05:56:52.735Z,0.60
2019-02-21T05:59:35.337Z,0.70
2019-02-21T06:02:08.505Z,0.70
2019-02-21T06:04:39.061Z,0.70
2019-02-21T06:07:12.351Z,0.70
2019-02-21T06:09:45.755Z,0.70
2019-02-21T06:12:33.980Z,0.80
2019-02-21T06:15:21.724Z,0.90
2019-02-21T06:17:52.233Z,0.90
2019-02-21T06:20:33.681Z,0.90
2019-02-21T06:23:10.310Z,1.00
2019-02-21T06:25:50.815Z,1.00
2019-02-21T06:28:13.108Z,1.10
2019-02-21T06:30:43.635Z,1.10
2019-02-21T06:33:12.527Z,1.10
2019-02-21T06:35:41.419Z,1.20
2019-02-21T06:38:10.394Z,1.20
2019-02-21T06:40:39.403Z,1.30
2019-02-21T06:43:14.651Z,1.50
2019-02-21T06:45:43.640Z,1.70
2019-02-21T06:48:12.520Z,1.90
2019-02-21T06:50:41.333Z,1.80
2019-02-21T06:53:10.228Z,1.90
2019-02-21T06:55:39.101Z,1.90
2019-02-21T06:58:07.961Z,2.00
2019-02-21T07:00:37.463Z,2.20
2019-02-21T07:03:15.358Z,2.40
2019-02-21T07:05:37.053Z,2.50
2019-02-21T07:08:05.997Z,2.50
2019-02-21T07:10:34.864Z,2.50
2019-02-21T07:13:03.670Z,2.70
2019-02-21T07:15:32.524Z,2.90
2019-02-21T07:18:01.425Z,3.10
2019-02-21T07:20:30.274Z,3.30
2019-02-21T07:22:59.146Z,3.60
2019-02-21T07:25:32.583Z,3.80
2019-02-21T07:28:11.378Z,4.10
2019-02-21T07:30:32.171Z,4.20
2019-02-21T07:33:01.017Z,4.30
2019-02-21T07:35:29.884Z,4.50
2019-02-21T07:37:58.759Z,4.90
2019-02-21T07:40:27.593Z,5.60
2019-02-21T07:42:58.594Z,6.40
2019-02-21T07:45:27.000Z,7.20
2019-02-21T07:47:55.954Z,8.60
2019-02-21T07:50:24.797Z,9.70
2019-02-21T07:53:01.916Z,10.20
2019-02-21T07:55:24.224Z,11.10
2019-02-21T07:57:53.087Z,11.70
2019-02-21T08:00:21.999Z,12.70
2019-02-21T08:02:50.867Z,13.40
2019-02-21T08:05:19.709Z,14.00
2019-02-21T08:07:49.876Z,15.00
2019-02-21T08:10:21.125Z,15.30
2019-02-21T08:12:53.479Z,15.70
2019-02-21T08:15:22.187Z,16.00
2019-02-21T08:17:51.066Z,16.00
2019-02-21T08:20:19.923Z,15.70
2019-02-21T08:22:48.821Z,15.70
2019-02-21T08:25:19.243Z,16.10
2019-02-21T08:27:48.148Z,16.00
2019-02-21T08:30:17.151Z,16.70
2019-02-21T08:33:04.092Z,16.70
2019-02-21T08:35:32.997Z,16.60
2019-02-21T08:38:01.866Z,16.90
2019-02-21T08:40:30.708Z,17.00
2019-02-21T08:42:59.616Z,18.10
2019-02-21T08:45:28.494Z,18.90
2019-02-21T08:47:57.331Z,19.80
2019-02-21T08:50:26.235Z,19.90
2019-02-21T08:52:55.118Z,19.80
2019-02-21T08:55:24.049Z,20.60
2019-02-21T08:57:52.960Z,20.60
2019-02-21T09:00:21.821Z,21.00
2019-02-21T09:02:50.673Z,21.20
2019-02-21T09:05:21.051Z,22.00
2019-02-21T09:07:49.928Z,22.40
2019-02-21T09:10:18.756Z,23.00
2019-02-21T09:12:48.641Z,23.20
2019-02-21T09:15:18.015Z,23.20
2019-02-21T09:17:46.874Z,22.80
2019-02-21T09:20:15.830Z,23.00
2019-02-21T09:22:44.696Z,22.20
2019-02-21T09:25:14.463Z,22.00
2019-02-21T09:27:43.356Z,22.30
2019-02-21T09:30:16.927Z,22.40
2019-02-21T09:32:45.796Z,22.50
2019-02-21T09:35:14.704Z,21.80
2019-02-21T09:37:43.551Z,21.50
2019-02-21T09:40:16.457Z,21.70
2019-02-21T09:42:45.409Z,22.20
2019-02-21T09:45:17.209Z,22.50
2019-02-21T09:47:46.071Z,23.10
2019-02-21T09:50:15.059Z,23.00
2019-02-21T09:52:43.925Z,22.90
2019-02-21T09:55:15.487Z,22.70
2019-02-21T09:57:44.461Z,22.60
2019-02-21T10:00:18.433Z,22.50
2019-02-21T10:02:47.293Z,22.50
2019-02-21T10:05:16.219Z,22.60
2019-02-21T10:07:45.074Z,22.60
2019-02-21T10:10:19.172Z,23.10
2019-02-21T10:12:48.058Z,23.00
2019-02-21T10:15:17.533Z,23.70
2019-02-21T10:17:46.360Z,23.70
2019-02-21T10:20:20.481Z,22.30
2019-02-21T10:22:49.323Z,19.80
2019-02-21T10:25:22.989Z,18.00
2019-02-21T10:27:51.155Z,17.00
2019-02-21T10:30:21.984Z,16.70
2019-02-21T10:32:50.930Z,16.40
2019-02-21T10:35:19.825Z,16.40
2019-02-21T10:37:48.760Z,16.60
2019-02-21T10:40:17.805Z,16.70
2019-02-21T10:42:46.824Z,16.70
2019-02-21T10:45:17.796Z,16.30
2019-02-21T10:47:46.639Z,15.90
2019-02-21T10:50:18.009Z,15.70
2019-02-21T10:52:46.846Z,15.80
2019-02-21T10:55:16.205Z,15.70
2019-02-21T10:57:45.630Z,15.30
2019-02-21T11:00:20.732Z,14.90
2019-02-21T11:02:49.744Z,14.70
2019-02-21T11:05:18.603Z,14.50
2019-02-21T11:07:47.443Z,14.40
2019-02-21T11:10:19.479Z,14.40
2019-02-21T11:12:48.433Z,14.60
2019-02-21T11:15:19.092Z,14.80
2019-02-21T11:17:47.970Z,14.80
2019-02-21T11:20:18.319Z,15.00
2019-02-21T11:22:47.175Z,14.90
2019-02-21T11:25:16.096Z,15.00
2019-02-21T11:27:44.962Z,15.30
2019-02-21T11:30:16.299Z,15.50
2019-02-21T11:32:45.187Z,15.80
2019-02-21T11:35:15.498Z,15.90
2019-02-21T11:37:46.760Z,15.70
2019-02-21T11:40:17.083Z,15.30
2019-02-21T11:42:46.083Z,15.40
2019-02-21T11:45:19.628Z,15.40
2019-02-21T11:47:48.537Z,15.50
2019-02-21T11:50:18.585Z,15.50
2019-02-21T11:52:47.525Z,15.10
2019-02-21T11:55:22.353Z,14.50
2019-02-21T11:57:51.197Z,14.10
2019-02-21T12:00:25.533Z,13.70
2019-02-21T12:02:54.426Z,13.60
2019-02-21T12:05:31.934Z,13.90
2019-02-21T12:07:54.457Z,14.20
2019-02-21T12:10:23.368Z,14.20
2019-02-21T12:12:52.210Z,14.10
2019-02-21T12:15:21.154Z,14.20
2019-02-21T12:17:50.075Z,14.30
2019-02-21T12:20:19.709Z,14.40
2019-02-21T12:22:48.572Z,14.50
2019-02-21T12:25:19.923Z,14.70
2019-02-21T12:27:49.153Z,14.90
2019-02-21T12:30:19.354Z,15.00
2019-02-21T12:32:48.347Z,15.00
2019-02-21T12:35:28.776Z,14.70
2019-02-21T12:37:47.651Z,14.70
2019-02-21T12:40:23.263Z,14.70
2019-02-21T12:42:52.123Z,14.70
2019-02-21T12:45:25.824Z,14.80
2019-02-21T12:47:54.742Z,14.80
2019-02-21T12:50:23.654Z,14.80
2019-02-21T12:52:52.531Z,14.90
2019-02-21T12:55:28.183Z,14.90
2019-02-21T12:57:51.927Z,14.90
2019-02-21T13:00:23.476Z,14.90
2019-02-21T13:02:52.406Z,14.90
2019-02-21T13:05:21.253Z,14.90
2019-02-21T13:07:50.212Z,15.00
2019-02-21T13:10:21.266Z,15.00
2019-02-21T13:12:50.127Z,14.80
2019-02-21T13:15:18.989Z,14.70
2019-02-21T13:17:47.888Z,14.60
2019-02-21T13:20:17.670Z,14.60
2019-02-21T13:22:46.535Z,14.50
2019-02-21T13:25:17.485Z,14.40
2019-02-21T13:27:46.317Z,14.30
2019-02-21T13:30:19.202Z,14.30
2019-02-21T13:32:48.057Z,14.30
2019-02-21T13:35:16.909Z,14.40
2019-02-21T13:37:45.798Z,14.60
2019-02-21T13:40:16.498Z,14.70
2019-02-21T13:42:57.547Z,14.80
2019-02-21T13:45:26.404Z,14.60
2019-02-21T13:47:55.238Z,14.50
2019-02-21T13:50:24.235Z,14.60
2019-02-21T13:52:53.074Z,14.40
2019-02-21T13:55:21.923Z,14.40
2019-02-21T13:57:50.818Z,14.50
2019-02-21T14:00:21.827Z,14.60
2019-02-21T14:02:50.666Z,14.60
2019-02-21T14:05:19.844Z,14.60
2019-02-21T14:07:48.685Z,14.80
2019-02-21T14:10:17.532Z,15.20
2019-02-21T14:12:46.446Z,15.50
2019-02-21T14:15:21.165Z,15.40
2019-02-21T14:17:50.059Z,15.20
2019-02-21T14:20:18.883Z,15.00
2019-02-21T14:22:47.775Z,14.90
2019-02-21T14:25:16.620Z,14.80
2019-02-21T14:27:45.472Z,14.80
2019-02-21T14:30:18.826Z,14.70
2019-02-21T14:32:47.841Z,14.70
2019-02-21T14:35:17.103Z,14.60
2019-02-21T14:37:45.941Z,14.70
2019-02-21T14:40:15.870Z,14.80
2019-02-21T14:42:44.688Z,14.90
2019-02-21T14:45:21.019Z,15.00
2019-02-21T14:47:49.886Z,15.00
2019-02-21T14:50:18.749Z,15.00
2019-02-21T14:52:47.638Z,14.80
2019-02-21T14:55:17.567Z,14.70
2019-02-21T14:57:46.518Z,14.60
2019-02-21T15:00:22.994Z,14.70
2019-02-21T15:02:51.860Z,14.80
2019-02-21T15:05:21.077Z,14.70
2019-02-21T15:07:50.132Z,14.80
2019-02-21T15:10:18.960Z,14.90
2019-02-21T15:12:47.899Z,15.00
2019-02-21T15:15:21.755Z,14.90
2019-02-21T15:17:49.686Z,14.80
2019-02-21T15:20:18.537Z,14.60
2019-02-21T15:22:47.460Z,14.40
2019-02-21T15:25:16.268Z,14.20
2019-02-21T15:27:45.129Z,14.10
2019-02-21T15:30:19.855Z,13.80
2019-02-21T15:32:49.220Z,13.60
2019-02-21T15:35:19.430Z,13.50
2019-02-21T15:37:48.602Z,13.40
2019-02-21T15:40:17.458Z,13.30
2019-02-21T15:42:46.305Z,13.40
2019-02-21T15:45:29.111Z,13.30
2019-02-21T15:47:57.964Z,13.20
2019-02-21T15:50:26.816Z,13.60
2019-02-21T15:52:57.039Z,14.00
2019-02-21T15:55:25.917Z,14.10
2019-02-21T15:58:03.324Z,14.20
2019-02-21T16:00:25.681Z,14.30
2019-02-21T16:02:54.528Z,14.20
2019-02-21T16:05:23.393Z,13.90
2019-02-21T16:07:52.308Z,13.50
2019-02-21T16:10:26.871Z,13.30
2019-02-21T16:12:56.419Z,12.90
2019-02-21T16:15:25.737Z,12.50
2019-02-21T16:17:54.576Z,12.20
2019-02-21T16:20:23.423Z,12.00
2019-02-21T16:22:52.346Z,11.90
2019-02-21T16:25:26.858Z,11.70
2019-02-21T16:27:55.857Z,11.60
2019-02-21T16:30:24.807Z,11.40
2019-02-21T16:32:53.640Z,11.30
2019-02-21T16:35:22.490Z,11.30
2019-02-21T16:37:51.407Z,11.40
2019-02-21T16:40:20.677Z,11.50
2019-02-21T16:42:49.519Z,11.30
2019-02-21T16:45:20.147Z,11.10
2019-02-21T16:47:48.988Z,10.90
2019-02-21T16:50:28.779Z,10.60
2019-02-21T16:52:48.415Z,10.40
2019-02-21T16:55:24.901Z,10.30
2019-02-21T16:58:13.485Z,10.20
2019-02-21T17:00:51.324Z,10.00
2019-02-21T17:03:12.878Z,9.90
2019-02-21T17:05:41.708Z,9.80
2019-02-21T17:08:10.616Z,9.80
2019-02-21T17:10:39.547Z,9.70
2019-02-21T17:13:08.444Z,9.60
2019-02-21T17:15:37.276Z,9.50
2019-02-21T17:18:06.178Z,9.40
2019-02-21T17:20:34.992Z,9.30
2019-02-21T17:23:03.830Z,9.30
2019-02-21T17:25:32.756Z,9.10
2019-02-21T17:28:01.559Z,9.00
2019-02-21T17:30:30.376Z,8.80
2019-02-21T17:32:59.264Z,8.70
2019-02-21T17:35:28.090Z,8.60
2019-02-21T17:37:56.957Z,8.50
2019-02-21T17:40:26.358Z,8.40
2019-02-21T17:42:55.230Z,8.30
2019-02-21T17:45:24.064Z,8.20
2019-02-21T17:47:52.986Z,8.20
2019-02-21T17:50:21.829Z,8.20
2019-02-21T17:52:50.666Z,8.20
2019-02-21T17:55:19.655Z,8.20
2019-02-21T17:57:49.758Z,8.10
2019-02-21T18:00:22.627Z,8.00
2019-02-21T18:02:51.554Z,7.90
2019-02-21T18:05:20.403Z,7.80
2019-02-21T18:07:49.251Z,7.70
2019-02-21T18:10:19.020Z,7.70
2019-02-21T18:12:47.906Z,7.60
2019-02-21T18:15:17.884Z,7.50
2019-02-21T18:17:46.770Z,7.40
2019-02-21T18:20:16.256Z,7.40
2019-02-21T18:22:45.685Z,7.30
2019-02-21T18:25:36.074Z,7.20
2019-02-21T18:28:04.915Z,7.20
2019-02-21T18:30:33.763Z,7.10
2019-02-21T18:33:02.684Z,7.00
2019-02-21T18:35:31.516Z,6.90
2019-02-21T18:38:00.384Z,6.80
2019-02-21T18:40:29.686Z,6.70
2019-02-21T18:42:58.509Z,6.70
2019-02-21T18:45:27.464Z,6.70
2019-02-21T18:47:56.474Z,6.60
2019-02-21T18:50:25.393Z,6.50
2019-02-21T18:52:57.527Z,6.40
2019-02-21T18:55:26.417Z,6.30
2019-02-21T18:57:55.371Z,6.20
2019-02-21T19:00:26.172Z,6.20
2019-02-21T19:02:55.252Z,6.00
2019-02-21T19:05:34.964Z,6.00
2019-02-21T19:08:00.871Z,5.90
2019-02-21T19:10:25.452Z,5.90
2019-02-21T19:12:54.300Z,5.90
2019-02-21T19:15:23.558Z,5.80
2019-02-21T19:17:52.477Z,5.80
2019-02-21T19:20:22.418Z,5.70
2019-02-21T19:22:51.273Z,5.60
2019-02-21T19:25:20.169Z,5.60
2019-02-21T19:27:49.014Z,5.60
2019-02-21T19:30:41.910Z,5.60
2019-02-21T19:33:10.753Z,5.70
2019-02-21T19:35:39.582Z,5.70
2019-02-21T19:38:10.803Z,5.60
2019-02-21T19:40:39.058Z,5.50
2019-02-21T19:43:07.899Z,5.50
2019-02-21T19:45:36.903Z,5.40
2019-02-21T19:48:05.759Z,5.40
2019-02-21T19:50:34.712Z,5.40
2019-02-21T19:53:03.621Z,5.40
2019-02-21T19:55:32.476Z,5.40
2019-02-21T19:58:01.386Z,5.40
2019-02-21T20:00:31.921Z,5.40
2019-02-21T20:03:01.205Z,5.30
2019-02-21T20:05:30.221Z,5.30
2019-02-21T20:08:08.264Z,5.30
2019-02-21T20:10:29.718Z,5.40
2019-02-21T20:13:03.025Z,5.40
2019-02-21T20:15:31.947Z,5.40
2019-02-21T20:18:00.821Z,5.40
2019-02-21T20:20:29.656Z,5.30
2019-02-21T20:22:58.554Z,5.30
2019-02-21T20:25:27.444Z,5.20
2019-02-21T20:27:56.316Z,5.20
2019-02-21T20:30:26.895Z,5.20
2019-02-21T20:32:55.745Z,5.30
2019-02-21T20:35:24.594Z,5.30
2019-02-21T20:37:53.588Z,5.40
2019-02-21T20:40:22.454Z,5.40
2019-02-21T20:42:51.325Z,5.30
2019-02-21T20:45:20.234Z,5.20
2019-02-21T20:47:49.104Z,5.20
2019-02-21T20:50:18.244Z,5.10
2019-02-21T20:52:47.138Z,5.10
2019-02-21T20:55:16.483Z,5.10
2019-02-21T20:57:45.348Z,5.10
2019-02-21T21:00:16.820Z,5.10
2019-02-21T21:02:45.656Z,5.10
2019-02-21T21:05:14.933Z,5.10
2019-02-21T21:07:43.956Z,5.10
2019-02-21T21:10:16.514Z,5.10
2019-02-21T21:12:45.360Z,5.10
2019-02-21T21:15:15.375Z,5.10
2019-02-21T21:17:45.761Z,5.20
2019-02-21T21:20:17.257Z,5.20
2019-02-21T21:22:46.528Z,5.20
2019-02-21T21:25:18.793Z,5.20
2019-02-21T21:27:49.207Z,5.20
2019-02-21T21:30:18.721Z,5.20
2019-02-21T21:32:47.552Z,5.20
2019-02-21T21:35:16.406Z,5.20
2019-02-21T21:37:45.283Z,5.20
2019-02-21T21:40:18.693Z,5.20
2019-02-21T21:42:47.553Z,5.20
2019-02-21T21:45:18.019Z,5.20
2019-02-21T21:47:46.894Z,5.10
2019-02-21T21:50:19.781Z,5.10
2019-02-21T21:52:48.676Z,5.00
2019-02-21T21:55:17.528Z,5.00
2019-02-21T21:57:46.409Z,4.90
2019-02-21T22:00:23.563Z,4.80
2019-02-21T22:02:53.068Z,4.80
2019-02-21T22:05:21.943Z,4.60
2019-02-21T22:07:51.469Z,4.50
2019-02-21T22:10:20.343Z,4.50
2019-02-21T22:12:49.298Z,4.60
2019-02-21T22:15:19.800Z,4.70
2019-02-21T22:17:48.647Z,4.80
2019-02-21T22:20:17.484Z,4.80
2019-02-21T22:22:47.539Z,4.80
2019-02-21T22:25:16.416Z,4.80
2019-02-21T22:27:45.253Z,4.80
2019-02-21T22:30:16.447Z,4.90
2019-02-21T22:32:45.303Z,4.90
2019-02-21T22:35:14.177Z,4.90
2019-02-21T22:37:43.169Z,4.90
2019-02-21T22:40:16.924Z,4.80
2019-02-21T22:42:45.758Z,4.80
2019-02-21T22:45:15.109Z,4.80
2019-02-21T22:47:43.968Z,4.80
2019-02-21T22:50:20.133Z,4.90
2019-02-21T22:52:49.032Z,5.00
2019-02-21T22:55:17.870Z,5.00
2019-02-21T22:57:46.770Z,5.00
2019-02-21T23:00:50.336Z,5.00
2019-02-21T23:03:19.295Z,5.10
2019-02-21T23:06:02.989Z,5.20
2019-02-21T23:08:40.720Z,5.20
2019-02-21T23:11:09.708Z,5.20
2019-02-21T23:13:38.553Z,5.20
2019-02-21T23:16:07.557Z,5.20
2019-02-21T23:18:36.476Z,5.30
2019-02-21T23:21:05.729Z,5.30
2019-02-21T23:23:34.720Z,5.30
2019-02-21T23:26:03.610Z,5.40
2019-02-21T23:28:32.455Z,5.50
2019-02-21T23:31:01.352Z,5.50
2019-02-21T23:33:31.613Z,5.50
2019-02-21T23:36:00.445Z,5.60
2019-02-21T23:38:29.552Z,5.50
2019-02-21T23:40:58.377Z,5.30
2019-02-21T23:43:27.179Z,5.20
2019-02-21T23:45:56.293Z,5.10
2019-02-21T23:48:25.105Z,5.00
2019-02-21T23:50:53.959Z,4.90
2019-02-21T23:53:22.843Z,4.90
2019-02-21T23:55:51.683Z,4.90
2019-02-21T23:58:20.552Z,4.80
